Time;durP1;ratioP1;P1;durP2;ratioP2;P2;SDS_P1;SDS_P2;PMS_P1;PMS_P2;Temp;Humidity;BMP_temperature;BMP_pressure;BME280_temperature;BME280_humidity;BME280_pressure;Samples;Min_cycle;Max_cycle;Signal;HPM_P1;HPM_P2
2022/12/12 00:00:48;;;;;;;43.83;16.48;;;-2.00;99.90;;;;;;5030240;28;20041;-66
2022/12/12 00:03:13;;;;;;;;;;;-2.00;99.90;;;;;;5038986;28;20029;-63
2022/12/12 00:05:39;;;;;;;45.70;14.98;;;-2.00;99.90;;;;;;5030104;28;19919;-65
2022/12/12 00:08:05;;;;;;;50.22;16.38;;;-2.00;99.90;;;;;;5033684;28;20025;-68
2022/12/12 00:10:32;;;;;;;52.20;17.52;;;-2.10;99.90;;;;;;5033290;28;20049;-64
2022/12/12 00:12:58;;;;;;;47.38;16.92;;;-2.10;99.90;;;;;;5038176;28;20029;-66
2022/12/12 00:15:24;;;;;;;47.28;16.70;;;-2.00;99.90;;;;;;5028870;28;20026;-66
2022/12/12 00:17:50;;;;;;;55.75;17.50;;;-2.00;99.90;;;;;;5028850;28;20091;-66
2022/12/12 00:20:15;;;;;;;52.65;16.67;;;-2.00;99.90;;;;;;5029726;28;20029;-65
2022/12/12 00:22:41;;;;;;;49.08;17.02;;;-2.10;99.90;;;;;;5039106;28;20048;-65
2022/12/12 00:25:07;;;;;;;51.25;16.90;;;-2.00;99.90;;;;;;5014134;28;20500;-70
2022/12/12 00:27:33;;;;;;;48.10;17.13;;;-2.00;99.90;;;;;;5029729;28;20026;-66
2022/12/12 00:29:59;;;;;;;52.63;18.40;;;-2.00;99.90;;;;;;5032324;28;20482;-64
2022/12/12 00:32:24;;;;;;;53.08;17.58;;;-2.00;99.90;;;;;;5030064;28;20091;-64
2022/12/12 00:34:50;;;;;;;54.60;17.60;;;-2.00;99.90;;;;;;5028320;28;20477;-66
2022/12/12 00:37:16;;;;;;;49.88;18.65;;;-2.00;99.90;;;;;;5032457;28;20532;-68
2022/12/12 00:39:41;;;;;;;54.63;18.33;;;-2.00;99.90;;;;;;5030220;28;20033;-65
2022/12/12 00:42:07;;;;;;;50.60;17.60;;;-2.00;99.90;;;;;;5047162;28;20489;-67
2022/12/12 00:44:33;;;;;;;54.35;17.38;;;-2.10;99.90;;;;;;5031514;28;20104;-66
2022/12/12 00:46:59;;;;;;;52.22;17.15;;;-2.10;99.90;;;;;;5030283;28;20493;-65
2022/12/12 00:49:24;;;;;;;52.88;18.80;;;-2.10;99.90;;;;;;5027123;28;20041;-66
2022/12/12 00:51:50;;;;;;;51.70;18.30;;;-2.10;99.90;;;;;;5034665;28;20109;-65
2022/12/12 00:54:15;;;;;;;52.97;19.05;;;-2.00;99.90;;;;;;5028118;28;20037;-65
2022/12/12 00:56:41;;;;;;;53.03;18.65;;;-2.00;99.90;;;;;;5031281;28;20037;-64
2022/12/12 00:59:07;;;;;;;56.50;18.70;;;-2.10;99.90;;;;;;5028609;28;20044;-69
2022/12/12 01:01:34;;;;;;;53.45;19.30;;;-2.10;99.90;;;;;;5027332;28;20033;-64
2022/12/12 01:04:00;;;;;;;53.47;18.20;;;-2.10;99.90;;;;;;5029383;28;20033;-66
2022/12/12 01:06:26;;;;;;;55.72;18.55;;;-2.00;99.90;;;;;;5029073;28;20504;-66
2022/12/12 01:08:53;;;;;;;59.50;17.38;;;-2.10;99.90;;;;;;5028846;28;20041;-64
2022/12/12 01:11:19;;;;;;;58.15;19.35;;;-2.10;99.90;;;;;;5030086;28;20041;-66
2022/12/12 01:13:46;;;;;;;55.17;18.85;;;-2.10;99.90;;;;;;5024178;28;20032;-67
2022/12/12 01:16:12;;;;;;;51.40;18.33;;;-2.10;99.90;;;;;;5034078;28;20036;-66
2022/12/12 01:18:38;;;;;;;61.00;20.40;;;-2.10;99.90;;;;;;5034801;28;20030;-66
2022/12/12 01:21:08;;;;;;;51.28;18.60;;;-2.10;99.90;;;;;;5010044;28;20036;-65
2022/12/12 01:23:33;;;;;;;55.83;19.40;;;-2.10;99.90;;;;;;5015391;28;20124;-67
2022/12/12 01:26:04;;;;;;;55.58;20.02;;;-2.10;99.90;;;;;;5029205;28;20523;-66
2022/12/12 01:28:30;;;;;;;55.45;18.40;;;-2.20;99.90;;;;;;5018445;28;20627;-64
2022/12/12 01:30:56;;;;;;;52.45;18.40;;;-2.20;99.90;;;;;;5026370;28;20029;-65
2022/12/12 01:33:22;;;;;;;56.20;18.67;;;-2.20;99.90;;;;;;5027838;28;20103;-64
2022/12/12 01:35:48;;;;;;;56.08;18.85;;;-2.20;99.90;;;;;;5039155;28;20399;-64
2022/12/12 01:38:14;;;;;;;52.30;18.73;;;-2.20;99.90;;;;;;5037729;28;20036;-66
2022/12/12 01:40:40;;;;;;;54.80;18.52;;;-2.30;99.90;;;;;;5030157;28;20087;-64
2022/12/12 01:43:13;;;;;;;53.03;18.90;;;-2.30;99.90;;;;;;5029029;28;20526;-65
2022/12/12 01:45:57;;;;;;;54.67;18.83;;;-2.30;99.90;;;;;;5038398;28;20148;-64
2022/12/12 01:48:36;;;;;;;56.95;18.65;;;-2.30;99.90;;;;;;5035465;28;20036;-64
2022/12/12 01:51:07;;;;;;;56.72;18.85;;;-2.30;99.90;;;;;;5034672;28;20033;-66
2022/12/12 01:53:33;;;;;;;;;;;-2.30;99.90;;;;;;5028889;28;20087;-64
2022/12/12 01:56:01;;;;;;;54.88;17.70;;;-2.30;99.90;;;;;;5039383;28;19924;-66
2022/12/12 01:58:29;;;;;;;54.00;18.33;;;-2.20;99.90;;;;;;5032431;28;20107;-64
2022/12/12 02:00:55;;;;;;;53.33;18.38;;;-2.20;99.90;;;;;;5040140;28;20029;-66
2022/12/12 02:03:21;;;;;;;59.53;18.90;;;-2.20;99.90;;;;;;5039369;28;20029;-66
2022/12/12 02:05:58;;;;;;;54.13;19.15;;;-2.20;99.90;;;;;;5029205;28;20538;-65
2022/12/12 02:08:25;;;;;;;54.35;18.08;;;-2.20;99.90;;;;;;5026475;28;20021;-65
2022/12/12 02:10:51;;;;;;;49.72;18.05;;;-2.30;99.90;;;;;;5028063;28;20390;-65
2022/12/12 02:13:27;;;;;;;54.45;17.75;;;-2.30;99.90;;;;;;5032374;28;20032;-66
2022/12/12 02:15:55;;;;;;;52.47;18.92;;;-2.40;99.90;;;;;;5027387;28;20064;-65
2022/12/12 02:18:28;;;;;;;50.08;17.77;;;-2.30;99.90;;;;;;5034881;28;20033;-67
2022/12/12 02:21:06;;;;;;;56.60;18.15;;;-2.30;99.90;;;;;;5026561;28;20029;-67
2022/12/12 02:23:41;;;;;;;53.50;18.55;;;-2.30;99.90;;;;;;5018595;28;20694;-66
2022/12/12 02:26:22;;;;;;;50.85;17.42;;;-2.30;99.90;;;;;;5028384;28;20037;-67
2022/12/12 02:29:25;;;;;;;54.75;17.17;;;-2.30;99.90;;;;;;5019524;28;20037;-66
2022/12/12 02:32:17;;;;;;;48.42;15.82;;;-2.30;99.90;;;;;;5024580;28;20065;-65
2022/12/12 02:35:01;;;;;;;46.90;16.85;;;-2.30;99.90;;;;;;5024590;28;20083;-66
2022/12/12 02:37:44;;;;;;;49.20;17.48;;;-2.20;99.90;;;;;;5009020;28;20045;-66
2022/12/12 02:40:23;;;;;;;51.38;17.77;;;-2.20;99.90;;;;;;5027193;28;20437;-65
2022/12/12 02:43:00;;;;;;;52.35;17.98;;;-2.20;99.90;;;;;;5027027;28;20047;-65
2022/12/12 02:46:11;;;;;;;51.75;18.13;;;-2.20;99.90;;;;;;5030858;28;20026;-64
2022/12/12 02:48:47;;;;;;;48.22;17.40;;;-2.30;99.90;;;;;;5009033;28;20056;-66
2022/12/12 02:51:14;;;;;;;52.28;17.30;;;-2.30;99.90;;;;;;5010988;28;20133;-69
2022/12/12 02:53:40;;;;;;;55.05;18.10;;;-2.30;99.90;;;;;;5015396;28;20052;-64
2022/12/12 02:56:08;;;;;;;52.67;18.33;;;-2.20;99.90;;;;;;5011492;28;20599;-65
2022/12/12 02:58:36;;;;;;;54.08;18.42;;;-2.20;99.90;;;;;;5006453;28;20045;-65
2022/12/12 03:01:32;;;;;;;50.97;16.95;;;-2.20;99.90;;;;;;5008251;28;20053;-66
2022/12/12 03:10:23;;;;;;;53.17;18.67;;;-2.20;99.90;;;;;;5025138;28;20513;-65
2022/12/12 03:13:18;;;;;;;49.83;18.00;;;-2.20;99.90;;;;;;5019102;28;20385;-66
2022/12/12 03:16:08;;;;;;;50.55;17.63;;;-2.30;99.90;;;;;;5000519;28;20037;-65
2022/12/12 03:18:36;;;;;;;48.97;17.48;;;-2.30;99.90;;;;;;5029414;28;20076;-65
2022/12/12 03:21:05;;;;;;;48.75;17.90;;;-2.40;99.90;;;;;;5042661;28;20040;-64
2022/12/12 03:23:38;;;;;;;50.92;18.60;;;-2.50;99.90;;;;;;5038656;28;20556;-64
2022/12/12 03:26:07;;;;;;;49.53;18.42;;;-2.50;99.90;;;;;;5036195;28;20036;-67
2022/12/12 03:28:44;;;;;;;49.20;17.08;;;-2.50;99.90;;;;;;5029142;28;20029;-64
2022/12/12 03:31:12;;;;;;;49.08;17.23;;;-2.50;99.90;;;;;;5028681;28;20038;-66
2022/12/12 03:33:54;;;;;;;45.22;17.02;;;-2.60;99.90;;;;;;5030920;28;20021;-66
2022/12/12 03:36:32;;;;;;;56.70;18.38;;;-2.60;99.90;;;;;;5024886;28;20021;-65
2022/12/12 03:39:05;;;;;;;52.63;18.50;;;-2.60;99.90;;;;;;5022284;28;20029;-66
2022/12/12 03:41:45;;;;;;;48.95;17.80;;;-2.60;99.90;;;;;;5017573;28;20038;-65
2022/12/12 03:44:25;;;;;;;51.00;17.92;;;-2.60;99.90;;;;;;5025630;28;20029;-65
2022/12/12 03:46:55;;;;;;;56.40;18.73;;;-2.60;99.90;;;;;;5027921;28;20041;-65
2022/12/12 03:49:41;;;;;;;49.92;17.63;;;-2.60;99.90;;;;;;5026778;28;20037;-66
2022/12/12 03:52:29;;;;;;;51.97;17.90;;;-2.50;99.90;;;;;;5032275;28;20393;-66
2022/12/12 03:55:09;;;;;;;47.95;17.17;;;-2.50;99.90;;;;;;5034900;28;20041;-63
2022/12/12 03:58:12;;;;;;;36.50;12.77;;;-2.60;99.90;;;;;;5037098;28;20477;-64
2022/12/12 04:00:40;;;;;;;53.63;18.55;;;-2.60;99.90;;;;;;5030314;28;20021;-64
2022/12/12 04:03:31;;;;;;;53.72;19.65;;;-2.60;99.90;;;;;;5027914;28;20109;-65
2022/12/12 04:14:40;;;;;;;54.08;18.02;;;-2.80;99.90;;;;;;5030165;28;20033;-66
2022/12/12 04:17:10;;;;;;;54.72;18.15;;;-2.80;99.90;;;;;;5028732;28;20029;-65
2022/12/12 04:28:45;;;;;;;58.05;18.85;;;-3.00;99.90;;;;;;5029798;28;20247;-66
2022/12/12 04:31:13;;;;;;;59.17;19.70;;;-2.90;99.90;;;;;;5029906;28;20112;-65
2022/12/12 04:33:51;;;;;;;64.38;20.58;;;-3.00;99.90;;;;;;5030220;28;20037;-65
2022/12/12 04:36:19;;;;;;;57.63;19.05;;;-2.90;99.90;;;;;;5033948;28;20034;-64
2022/12/12 04:38:47;;;;;;;60.65;19.77;;;-2.90;99.90;;;;;;5019416;28;20044;-65
2022/12/12 04:41:15;;;;;;;55.45;19.48;;;-2.90;99.90;;;;;;5030583;28;20053;-66
2022/12/12 04:43:42;;;;;;;57.50;20.60;;;-3.00;99.90;;;;;;5027953;28;20289;-65
2022/12/12 04:46:14;;;;;;;55.97;18.17;;;-2.90;99.90;;;;;;5028324;28;20087;-64
2022/12/12 04:48:45;;;;;;;53.10;18.70;;;-2.90;99.90;;;;;;5029663;28;20042;-65
2022/12/12 04:51:15;;;;;;;55.03;18.67;;;-3.00;99.90;;;;;;5029133;28;20205;-65
2022/12/12 04:53:53;;;;;;;52.85;17.65;;;-2.90;99.90;;;;;;5028836;28;20022;-66
2022/12/12 04:56:25;;;;;;;53.95;18.63;;;-2.90;99.90;;;;;;5022385;28;20042;-65
2022/12/12 04:58:51;;;;;;;50.30;18.13;;;-3.00;99.90;;;;;;5010577;28;20030;-65
2022/12/12 05:01:31;;;;;;;59.08;18.85;;;-3.00;99.90;;;;;;5023068;28;20033;-66
2022/12/12 05:04:00;;;;;;;61.90;21.00;;;-3.00;99.90;;;;;;5029742;28;20033;-65
2022/12/12 05:06:45;;;;;;;57.10;19.73;;;-3.00;99.90;;;;;;5026317;28;20554;-66
2022/12/12 05:09:12;;;;;;;60.00;20.13;;;-3.00;99.90;;;;;;5028996;28;20030;-66
2022/12/12 05:11:40;;;;;;;55.72;19.60;;;-3.00;99.90;;;;;;5029021;28;20043;-66
2022/12/12 05:14:08;;;;;;;55.38;19.05;;;-2.90;99.90;;;;;;5028181;28;20037;-66
2022/12/12 05:16:54;;;;;;;55.40;19.52;;;-2.90;99.90;;;;;;5028051;28;20034;-65
2022/12/12 05:19:20;;;;;;;60.05;20.63;;;-2.90;99.90;;;;;;5028850;28;20037;-66
2022/12/12 05:21:45;;;;;;;61.88;19.48;;;-2.90;99.90;;;;;;5025773;28;20037;-65
2022/12/12 05:24:11;;;;;;;54.15;18.75;;;-3.00;99.90;;;;;;5029741;28;20395;-65
2022/12/12 05:26:37;;;;;;;55.95;19.63;;;-3.00;99.90;;;;;;5028184;28;20036;-66
2022/12/12 05:29:04;;;;;;;54.40;19.40;;;-3.00;99.90;;;;;;5028490;28;20083;-65
2022/12/12 05:31:29;;;;;;;50.45;17.60;;;-3.00;99.90;;;;;;5027933;28;20033;-65
2022/12/12 05:33:55;;;;;;;51.28;18.95;;;-3.00;99.90;;;;;;5028288;28;20055;-66
2022/12/12 05:36:21;;;;;;;62.58;19.27;;;-3.00;99.90;;;;;;5029600;28;20033;-66
2022/12/12 05:38:47;;;;;;;50.38;17.52;;;-3.10;99.90;;;;;;5027755;28;20048;-66
2022/12/12 05:41:13;;;;;;;51.35;17.35;;;-3.10;99.90;;;;;;5032764;28;20025;-66
2022/12/12 05:43:38;;;;;;;54.13;18.65;;;-3.10;99.90;;;;;;5028942;28;20116;-65
2022/12/12 05:46:05;;;;;;;52.63;17.75;;;-3.00;99.90;;;;;;5029369;28;20104;-64
2022/12/12 05:48:31;;;;;;;57.90;18.27;;;-3.00;99.90;;;;;;5027740;28;20099;-66
2022/12/12 05:50:58;;;;;;;49.95;16.80;;;-3.00;99.90;;;;;;5028802;28;20044;-66
2022/12/12 05:53:24;;;;;;;51.35;17.48;;;-2.90;99.90;;;;;;5032504;28;20037;-67
2022/12/12 05:55:50;;;;;;;48.80;16.98;;;-2.80;99.90;;;;;;5028536;28;20037;-66
2022/12/12 05:58:17;;;;;;;50.22;17.73;;;-2.80;99.90;;;;;;5028014;28;20053;-66
2022/12/12 06:00:43;;;;;;;51.90;17.27;;;-2.80;99.90;;;;;;5027685;28;20075;-66
2022/12/12 06:03:08;;;;;;;45.90;16.65;;;-2.80;99.90;;;;;;5032779;28;20037;-65
2022/12/12 06:05:34;;;;;;;48.35;17.08;;;-2.80;99.90;;;;;;5027399;28;20036;-66
2022/12/12 06:08:00;;;;;;;53.65;17.30;;;-2.90;99.90;;;;;;5028446;28;20032;-65
2022/12/12 06:10:26;;;;;;;54.58;17.08;;;-2.90;99.90;;;;;;5028081;28;20790;-67
2022/12/12 06:12:51;;;;;;;53.85;18.75;;;-2.90;99.90;;;;;;5027622;28;20045;-65
2022/12/12 06:15:17;;;;;;;61.70;19.58;;;-2.90;99.90;;;;;;5031402;28;20059;-66
2022/12/12 06:17:42;;;;;;;60.72;19.50;;;-2.90;99.90;;;;;;5035813;28;20025;-66
2022/12/12 06:20:09;;;;;;;63.60;19.98;;;-2.90;99.90;;;;;;5027167;28;20125;-66
2022/12/12 06:22:35;;;;;;;59.80;19.90;;;-2.80;99.90;;;;;;5030445;28;20045;-66
2022/12/12 06:25:01;;;;;;;64.80;21.65;;;-2.80;99.90;;;;;;5028805;28;20030;-66
2022/12/12 06:27:26;;;;;;;63.55;21.92;;;-2.90;99.90;;;;;;5027345;28;20064;-66
2022/12/12 06:29:52;;;;;;;61.83;21.38;;;-2.90;99.90;;;;;;5022396;28;20449;-64
2022/12/12 06:32:18;;;;;;;64.63;20.88;;;-2.90;99.90;;;;;;5021584;28;20041;-66
2022/12/12 06:34:43;;;;;;;60.40;21.00;;;-3.00;99.90;;;;;;5026880;28;20032;-66
2022/12/12 06:37:09;;;;;;;69.15;21.13;;;-3.00;99.90;;;;;;5021637;28;20128;-65
2022/12/12 06:39:36;;;;;;;61.63;21.58;;;-3.00;99.90;;;;;;5033079;28;20032;-66
2022/12/12 06:42:02;;;;;;;68.00;20.60;;;-3.00;99.90;;;;;;5034204;28;20571;-64
2022/12/12 06:44:27;;;;;;;64.47;21.67;;;-3.10;99.90;;;;;;5036651;28;20109;-66
2022/12/12 06:46:53;;;;;;;60.20;21.33;;;-3.00;99.90;;;;;;5042218;28;20028;-64
2022/12/12 06:49:19;;;;;;;67.03;21.88;;;-3.10;99.90;;;;;;5046930;28;20033;-66
2022/12/12 06:51:45;;;;;;;68.53;22.95;;;-3.10;99.90;;;;;;5034453;28;20470;-64
2022/12/12 06:54:19;;;;;;;73.45;23.17;;;-3.10;99.90;;;;;;5030970;28;20033;-65
2022/12/12 06:56:45;;;;;;;70.05;21.83;;;-3.20;99.90;;;;;;5036915;28;20021;-66
2022/12/12 06:59:11;;;;;;;78.93;24.35;;;-3.20;99.90;;;;;;5045603;28;20506;-65
2022/12/12 07:01:37;;;;;;;62.72;22.83;;;-3.20;99.90;;;;;;5041790;28;20139;-66
2022/12/12 07:04:04;;;;;;;69.68;24.05;;;-3.20;99.90;;;;;;5038109;28;20038;-66
2022/12/12 07:06:29;;;;;;;69.63;22.92;;;-3.20;99.90;;;;;;5030318;28;20033;-67
2022/12/12 07:08:57;;;;;;;64.82;23.50;;;-3.20;99.90;;;;;;5022718;28;20032;-66
2022/12/12 07:11:24;;;;;;;80.70;25.38;;;-3.30;99.90;;;;;;5035648;28;20056;-64
2022/12/12 07:13:51;;;;;;;81.15;25.25;;;-3.30;99.90;;;;;;5034438;28;20040;-65
2022/12/12 07:16:17;;;;;;;72.55;24.55;;;-3.40;99.90;;;;;;5032059;28;20033;-65
2022/12/12 07:18:43;;;;;;;83.70;25.17;;;-3.50;99.90;;;;;;5023238;28;20354;-65
2022/12/12 07:21:12;;;;;;;72.47;24.05;;;-3.50;99.90;;;;;;5028647;28;20072;-66
2022/12/12 07:23:37;;;;;;;75.22;26.20;;;-3.60;99.90;;;;;;5030793;28;20128;-64
2022/12/12 07:26:10;;;;;;;92.88;25.77;;;-3.60;99.90;;;;;;5025899;28;20120;-64
2022/12/12 07:28:37;;;;;;;79.53;25.45;;;-3.60;99.90;;;;;;5024087;28;20021;-64
2022/12/12 07:31:07;;;;;;;87.13;27.33;;;-3.60;99.90;;;;;;5027450;28;20095;-64
2022/12/12 07:33:33;;;;;;;;;;;-3.50;99.90;;;;;;5028840;28;20029;-65
2022/12/12 07:35:58;;;;;;;73.93;24.63;;;-3.50;99.90;;;;;;5037605;28;19949;-65
2022/12/12 07:38:24;;;;;;;80.40;25.48;;;-3.50;99.90;;;;;;5048335;28;20063;-65
2022/12/12 07:40:50;;;;;;;75.70;24.88;;;-3.50;99.90;;;;;;5030712;28;20029;-64
2022/12/12 07:43:16;;;;;;;81.30;27.13;;;-3.40;99.90;;;;;;5030034;28;20044;-66
2022/12/12 07:45:46;;;;;;;82.90;27.30;;;-3.50;99.90;;;;;;5028962;28;20036;-65
2022/12/12 07:48:12;;;;;;;82.40;26.95;;;-3.50;99.90;;;;;;5029635;28;20037;-65
2022/12/12 07:50:41;;;;;;;79.30;27.05;;;-3.50;99.90;;;;;;5031863;28;20112;-62
2022/12/12 07:53:07;;;;;;;80.85;27.27;;;-3.50;99.90;;;;;;5049408;28;20545;-64
2022/12/12 07:55:34;;;;;;;82.45;25.67;;;-3.40;99.90;;;;;;5047961;28;20033;-65
2022/12/12 07:57:59;;;;;;;83.85;27.23;;;-3.40;99.90;;;;;;5031418;28;20032;-64
2022/12/12 08:00:26;;;;;;;87.07;27.65;;;-3.30;99.90;;;;;;5043996;28;20029;-63
2022/12/12 08:02:52;;;;;;;83.82;28.25;;;-3.30;99.90;;;;;;5050519;28;20024;-63
2022/12/12 08:05:17;;;;;;;88.32;27.65;;;-3.30;99.90;;;;;;5051233;28;20424;-63
2022/12/12 08:07:43;;;;;;;79.47;27.25;;;-3.20;99.90;;;;;;5047049;28;20033;-64
2022/12/12 08:10:09;;;;;;;83.35;27.10;;;-3.20;99.90;;;;;;5031194;28;20036;-65
2022/12/12 08:12:34;;;;;;;92.32;28.77;;;-3.20;99.90;;;;;;5030351;28;20030;-66
2022/12/12 08:15:00;;;;;;;79.80;26.10;;;-3.10;99.90;;;;;;5031178;28;20021;-62
2022/12/12 08:17:29;;;;;;;76.88;27.02;;;-3.10;99.90;;;;;;5030845;28;20029;-63
2022/12/12 08:19:54;;;;;;;82.07;28.05;;;-3.00;99.90;;;;;;5037952;28;20109;-64
2022/12/12 08:22:20;;;;;;;81.15;27.33;;;-3.00;99.90;;;;;;5045620;28;20052;-64
2022/12/12 08:24:48;;;;;;;80.97;28.17;;;-2.90;99.90;;;;;;5029939;28;20044;-65
2022/12/12 08:27:13;;;;;;;77.50;28.52;;;-2.80;99.90;;;;;;5032139;28;20032;-65
2022/12/12 08:29:39;;;;;;;80.15;27.23;;;-2.80;99.90;;;;;;5046155;28;20136;-64
2022/12/12 08:32:04;;;;;;;78.00;26.98;;;-2.70;99.90;;;;;;5048335;28;20033;-63
2022/12/12 08:34:30;;;;;;;78.47;27.77;;;-2.70;99.90;;;;;;5038097;28;20036;-65
2022/12/12 08:36:56;;;;;;;80.28;28.17;;;-2.70;99.90;;;;;;5028557;28;20033;-65
2022/12/12 08:39:21;;;;;;;74.55;27.67;;;-2.50;99.90;;;;;;5029475;28;20117;-65
2022/12/12 08:41:47;;;;;;;77.75;27.60;;;-2.30;99.90;;;;;;5031387;28;20034;-64
2022/12/12 08:44:15;;;;;;;78.32;26.55;;;-2.20;99.90;;;;;;5031061;28;20475;-65
2022/12/12 08:46:41;;;;;;;73.90;27.08;;;-2.30;99.90;;;;;;5049552;28;20474;-64
2022/12/12 08:49:09;;;;;;;76.95;27.13;;;-2.20;99.90;;;;;;5043021;28;20048;-64
2022/12/12 08:51:37;;;;;;;69.82;26.73;;;-2.10;99.90;;;;;;5029382;28;20030;-67
2022/12/12 08:54:03;;;;;;;74.93;26.88;;;-2.10;99.90;;;;;;5029435;28;20038;-65
2022/12/12 08:56:29;;;;;;;76.78;26.67;;;-2.10;99.90;;;;;;5049226;28;20039;-64
2022/12/12 08:58:54;;;;;;;73.50;28.33;;;-2.00;99.90;;;;;;5047963;28;20025;-65
2022/12/12 09:01:23;;;;;;;71.80;26.30;;;-2.00;99.90;;;;;;5050152;28;20358;-64
2022/12/12 09:03:50;;;;;;;73.90;26.85;;;-2.00;99.90;;;;;;5045737;28;20541;-66
2022/12/12 09:06:16;;;;;;;71.20;24.35;;;-1.90;99.90;;;;;;5029680;28;20124;-65
2022/12/12 09:08:42;;;;;;;70.60;23.88;;;-1.90;99.90;;;;;;5029064;28;20033;-63
2022/12/12 09:11:09;;;;;;;66.95;24.10;;;-1.90;99.90;;;;;;5030098;28;20553;-64
2022/12/12 09:13:35;;;;;;;76.32;23.85;;;-1.80;99.90;;;;;;5041536;28;20036;-66
2022/12/12 09:16:01;;;;;;;64.72;22.25;;;-1.70;99.90;;;;;;5049246;28;20032;-66
2022/12/12 09:18:27;;;;;;;61.58;21.70;;;-1.70;99.90;;;;;;5049793;28;20520;-64
2022/12/12 09:20:54;;;;;;;67.63;22.88;;;-1.80;99.90;;;;;;5049225;28;20033;-64
2022/12/12 09:23:22;;;;;;;68.50;21.83;;;-1.70;99.90;;;;;;5047761;28;20045;-63
2022/12/12 09:25:48;;;;;;;59.00;21.90;;;-1.70;99.90;;;;;;5035250;28;20045;-65
2022/12/12 09:28:16;;;;;;;54.63;19.17;;;-1.70;99.90;;;;;;5029526;28;20449;-65
2022/12/12 09:30:43;;;;;;;54.75;18.70;;;-1.70;99.90;;;;;;5028711;28;20029;-64
2022/12/12 09:33:09;;;;;;;56.45;19.52;;;-1.70;99.90;;;;;;5029408;28;20041;-66
2022/12/12 09:35:35;;;;;;;53.75;19.08;;;-1.70;99.90;;;;;;5028053;28;20033;-63
2022/12/12 09:38:01;;;;;;;50.45;17.63;;;-1.60;99.90;;;;;;5048772;28;20080;-64
2022/12/12 09:40:48;;;;;;;51.80;18.50;;;-1.60;99.90;;;;;;5048047;28;20037;-64
2022/12/12 09:43:18;;;;;;;48.78;16.67;;;-1.60;99.90;;;;;;5049364;28;20032;-65
2022/12/12 09:45:45;;;;;;;50.50;17.33;;;-1.60;99.90;;;;;;5038608;28;20505;-63
2022/12/12 09:48:18;;;;;;;45.80;16.95;;;-1.60;99.90;;;;;;5029104;28;20136;-64
2022/12/12 09:50:47;;;;;;;48.75;17.42;;;-1.50;99.90;;;;;;5028549;28;20459;-65
2022/12/12 09:53:17;;;;;;;48.60;17.05;;;-1.40;99.90;;;;;;5038774;28;20040;-64
2022/12/12 09:56:12;;;;;;;49.22;17.95;;;-1.40;99.90;;;;;;5042521;28;20466;-65
2022/12/12 09:58:42;;;;;;;51.25;17.00;;;-1.40;99.90;;;;;;5027240;28;20045;-65
2022/12/12 10:01:32;;;;;;;48.00;17.15;;;-1.40;99.90;;;;;;5029185;28;20029;-63
2022/12/12 10:04:27;;;;;;;46.33;16.08;;;-1.60;99.90;;;;;;5028369;28;20027;-64
2022/12/12 10:07:00;;;;;;;45.22;15.73;;;-1.70;99.90;;;;;;5027601;28;20124;-64
2022/12/12 10:09:37;;;;;;;53.72;18.50;;;-1.70;99.90;;;;;;5048661;28;20029;-63
2022/12/12 10:12:06;;;;;;;52.08;18.52;;;-1.60;99.90;;;;;;5035414;28;20025;-64
2022/12/12 10:14:44;;;;;;;47.25;17.02;;;-1.60;99.90;;;;;;5027655;28;20087;-65
2022/12/12 10:17:34;;;;;;;50.90;17.02;;;-1.50;99.90;;;;;;5029907;28;20030;-64
2022/12/12 10:20:21;;;;;;;51.88;18.10;;;-1.40;99.90;;;;;;5043098;28;20180;-64
2022/12/12 10:23:12;;;;;;;50.95;18.23;;;-1.20;99.90;;;;;;5047855;28;20077;-64
2022/12/12 10:26:01;;;;;;;51.22;17.48;;;-1.10;99.90;;;;;;5048669;28;20125;-66
2022/12/12 10:28:29;;;;;;;66.15;20.45;;;-1.00;99.90;;;;;;5047403;28;20033;-64
2022/12/12 10:31:27;;;;;;;52.90;18.15;;;-0.90;99.90;;;;;;5047529;28;20086;-65
2022/12/12 10:34:13;;;;;;;53.08;18.60;;;-0.70;99.90;;;;;;5044942;28;20041;-65
2022/12/12 10:36:47;;;;;;;53.65;19.05;;;-0.70;99.90;;;;;;5048619;28;20586;-65
2022/12/12 10:39:41;;;;;;;54.13;18.92;;;-0.50;99.90;;;;;;5048632;28;20082;-64
2022/12/12 10:42:18;;;;;;;57.25;20.92;;;-0.30;99.90;;;;;;5034762;28;20505;-66
2022/12/12 10:45:03;;;;;;;53.67;18.95;;;-0.20;99.90;;;;;;5008139;28;20110;-68
2022/12/12 10:47:29;;;;;;;52.33;18.80;;;-0.40;99.90;;;;;;5016089;28;20110;-65
2022/12/12 10:50:25;;;;;;;46.80;18.23;;;-0.50;99.90;;;;;;5046605;28;20037;-63
2022/12/12 10:52:50;;;;;;;54.03;17.90;;;-0.50;99.90;;;;;;5043348;28;20048;-65
2022/12/12 10:55:24;;;;;;;46.30;18.30;;;-0.50;99.90;;;;;;5048481;28;20032;-66
2022/12/12 10:58:00;;;;;;;48.67;19.10;;;-0.50;99.90;;;;;;5046881;28;20036;-64
2022/12/12 11:00:34;;;;;;;58.13;20.30;;;-0.30;99.90;;;;;;5048102;28;20029;-64
2022/12/12 11:03:15;;;;;;;56.55;20.05;;;0.00;99.90;;;;;;5044146;28;20037;-64
2022/12/12 11:05:41;;;;;;;52.00;19.33;;;0.40;99.90;;;;;;5048505;28;20036;-67
2022/12/12 11:08:29;;;;;;;51.78;18.20;;;0.50;99.90;;;;;;5048929;28;20033;-65
2022/12/12 11:11:05;;;;;;;46.28;17.48;;;0.70;99.90;;;;;;5051534;28;20029;-64
2022/12/12 11:13:37;;;;;;;44.42;17.08;;;0.70;99.90;;;;;;5037670;28;20454;-66
2022/12/12 11:16:12;;;;;;;46.58;16.75;;;0.50;99.90;;;;;;5033945;28;20160;-65
2022/12/12 11:18:38;;;;;;;50.03;18.70;;;0.40;99.90;;;;;;5032294;28;20470;-63
2022/12/12 11:21:12;;;;;;;40.92;15.05;;;0.30;99.90;;;;;;5031398;28;20040;-67
2022/12/12 11:23:40;;;;;;;45.17;16.48;;;0.10;99.90;;;;;;5031825;28;20053;-66
2022/12/12 11:26:15;;;;;;;40.58;15.20;;;0.00;99.90;;;;;;5042721;28;20916;-64
2022/12/12 11:28:45;;;;;;;46.70;16.70;;;-0.10;99.90;;;;;;5051356;28;20029;-65
2022/12/12 11:31:15;;;;;;;39.95;14.98;;;-0.20;99.90;;;;;;5042452;28;20068;-66
2022/12/12 11:33:47;;;;;;;;;;;-0.10;99.90;;;;;;5034987;28;20042;-65
2022/12/12 11:36:16;;;;;;;42.15;14.95;;;0.00;99.90;;;;;;5030588;28;20004;-64
2022/12/12 11:38:56;;;;;;;41.08;16.40;;;0.10;99.90;;;;;;5031635;28;20037;-65
2022/12/12 11:41:22;;;;;;;40.17;16.25;;;0.10;99.90;;;;;;5031986;28;20036;-64
2022/12/12 11:43:48;;;;;;;45.88;17.17;;;0.10;99.90;;;;;;5045739;28;20461;-68
2022/12/12 11:46:17;;;;;;;39.65;15.02;;;0.20;99.90;;;;;;5050285;28;20112;-66
2022/12/12 11:48:53;;;;;;;42.60;16.00;;;0.50;99.90;;;;;;5051413;28;20035;-65
2022/12/12 11:51:36;;;;;;;44.15;14.65;;;0.80;99.90;;;;;;5041280;28;20045;-64
2022/12/12 11:54:11;;;;;;;36.97;14.77;;;1.10;99.90;;;;;;5050701;28;20048;-64
2022/12/12 11:56:42;;;;;;;36.75;14.07;;;1.10;99.90;;;;;;5050395;28;20021;-66
2022/12/12 11:59:32;;;;;;;33.60;12.35;;;1.20;99.90;;;;;;5050740;28;20020;-64
2022/12/12 12:02:35;;;;;;;33.55;13.48;;;1.10;99.90;;;;;;5050674;28;20033;-64
2022/12/12 12:05:21;;;;;;;27.42;11.70;;;1.40;99.90;;;;;;5040190;28;20067;-67
2022/12/12 12:08:23;;;;;;;30.45;11.45;;;1.60;99.90;;;;;;5030963;28;20033;-69
2022/12/12 12:10:51;;;;;;;33.50;12.85;;;1.70;99.90;;;;;;5022583;28;20067;-68
2022/12/12 12:13:29;;;;;;;33.97;12.75;;;1.30;99.90;;;;;;5050468;28;20037;-66
2022/12/12 12:16:15;;;;;;;39.05;16.50;;;1.10;99.90;;;;;;5020990;28;20040;-65
2022/12/12 12:18:49;;;;;;;37.70;14.88;;;1.20;99.90;;;;;;5050795;28;20505;-64
2022/12/12 12:21:28;;;;;;;38.08;13.20;;;1.80;99.90;;;;;;5050016;28;20021;-65
2022/12/12 12:24:09;;;;;;;31.25;12.07;;;1.80;99.90;;;;;;5049624;28;20060;-65
2022/12/12 12:26:35;;;;;;;31.63;13.13;;;1.70;99.90;;;;;;5039440;28;20573;-66
2022/12/12 12:29:16;;;;;;;33.00;12.55;;;1.90;99.90;;;;;;5030056;28;20108;-65
2022/12/12 12:31:49;;;;;;;;;;;1.80;99.90;;;;;;5011501;28;20081;-64
2022/12/12 12:34:39;;;;;;;35.53;13.27;;;1.90;99.90;;;;;;5024093;28;19908;-65
2022/12/12 12:37:11;;;;;;;36.55;14.02;;;2.20;99.90;;;;;;5049956;28;20053;-66
2022/12/12 12:40:08;;;;;;;35.95;13.55;;;2.20;99.90;;;;;;5050586;28;20563;-64
2022/12/12 12:42:58;;;;;;;30.65;12.80;;;2.60;99.90;;;;;;5050526;28;20409;-67
2022/12/12 12:45:34;;;;;;;28.25;10.05;;;2.60;99.90;;;;;;5050573;28;20025;-66
2022/12/12 12:48:08;;;;;;;31.65;13.43;;;2.40;99.90;;;;;;5048176;28;20060;-66
2022/12/12 12:50:41;;;;;;;34.53;13.00;;;2.50;99.90;;;;;;5045878;28;20108;-65
2022/12/12 12:53:19;;;;;;;32.53;13.23;;;2.40;99.90;;;;;;5029673;28;20029;-65
2022/12/12 12:55:50;;;;;;;37.30;14.27;;;2.50;99.90;;;;;;5030768;28;20097;-64
2022/12/12 12:58:25;;;;;;;29.83;12.32;;;2.60;99.90;;;;;;5029822;28;20073;-66
2022/12/12 13:01:15;;;;;;;36.55;13.52;;;2.70;99.90;;;;;;5030052;28;20475;-69
2022/12/12 13:04:06;;;;;;;32.35;13.30;;;2.70;99.90;;;;;;5042694;28;20114;-65
2022/12/12 13:06:55;;;;;;;33.80;13.02;;;2.50;99.90;;;;;;5050447;28;20029;-64
2022/12/12 13:09:42;;;;;;;29.85;12.45;;;2.80;99.90;;;;;;5049996;28;20036;-64
2022/12/12 13:12:27;;;;;;;37.78;13.52;;;2.90;99.90;;;;;;5048967;28;20821;-65
2022/12/12 13:15:11;;;;;;;31.35;12.25;;;2.90;99.90;;;;;;5041218;28;20179;-65
2022/12/12 13:17:51;;;;;;;36.83;13.75;;;2.60;99.90;;;;;;5047982;28;20033;-64